Time;durP1;ratioP1;P1;durP2;ratioP2;P2;SDS_P1;SDS_P2;PMS_P1;PMS_P2;Temp;Humidity;BMP_temperature;BMP_pressure;BME280_temperature;BME280_humidity;BME280_pressure;Samples;Min_cycle;Max_cycle;Signal;HPM_P1;HPM_P2
2022/07/07 00:00:03;;;;;;;4.85;3.00;;;;;;;;;;6205595;23;20167;-88
2022/07/07 00:03:09;;;;;;;12.15;4.63;;;;;;;;;;6225314;23;20171;-88
2022/07/07 00:06:15;;;;;;;9.13;3.65;;;;;;;;;;6207234;23;20170;-88
2022/07/07 00:09:20;;;;;;;7.97;3.50;;;;;;;;;;6207488;23;20171;-88
2022/07/07 00:12:25;;;;;;;7.63;3.80;;;;;;;;;;6206904;23;20299;-88
2022/07/07 00:15:32;;;;;;;8.88;4.50;;;;;;;;;;6206140;23;20175;-88
2022/07/07 00:18:37;;;;;;;9.52;5.13;;;;;;;;;;6208145;23;20170;-89
2022/07/07 00:21:42;;;;;;;10.45;4.53;;;;;;;;;;6207765;23;20515;-88
2022/07/07 00:24:47;;;;;;;10.18;4.18;;;;;;;;;;6206316;23;20643;-88
2022/07/07 00:27:52;;;;;;;7.90;3.53;;;;;;;;;;6207214;23;20183;-89
2022/07/07 00:30:58;;;;;;;7.00;3.70;;;;;;;;;;6207750;23;20170;-88
2022/07/07 00:34:03;;;;;;;5.18;3.60;;;;;;;;;;6205573;23;20579;-88
2022/07/07 00:37:08;;;;;;;9.18;3.58;;;;;;;;;;6207380;23;20271;-90
2022/07/07 00:40:14;;;;;;;9.57;3.90;;;;;;;;;;6207082;23;20506;-89
2022/07/07 00:43:19;;;;;;;8.48;3.35;;;;;;;;;;6206724;23;20210;-89
2022/07/07 00:46:25;;;;;;;8.63;3.60;;;;;;;;;;6207106;23;20182;-90
2022/07/07 00:49:31;;;;;;;5.90;3.67;;;;;;;;;;6205479;23;20689;-89
2022/07/07 00:52:36;;;;;;;7.18;3.47;;;;;;;;;;6205357;23;20338;-90
2022/07/07 00:55:41;;;;;;;7.32;3.75;;;;;;;;;;6208741;23;20175;-88
2022/07/07 00:58:46;;;;;;;10.50;3.47;;;;;;;;;;6227847;23;20505;-89
2022/07/07 01:01:53;;;;;;;6.47;3.65;;;;;;;;;;6225930;23;20187;-89
2022/07/07 01:05:00;;;;;;;7.43;3.70;;;;;;;;;;6211343;23;20170;-91
2022/07/07 01:08:08;;;;;;;7.90;3.85;;;;;;;;;;6209314;23;20231;-91
2022/07/07 01:11:13;;;;;;;7.13;3.67;;;;;;;;;;6209392;23;20175;-89
2022/07/07 01:14:18;;;;;;;11.02;4.00;;;;;;;;;;6208896;23;20295;-89
2022/07/07 01:17:25;;;;;;;11.63;4.75;;;;;;;;;;6209477;23;20175;-90
2022/07/07 01:20:30;;;;;;;10.80;5.18;;;;;;;;;;6210228;23;20174;-90
2022/07/07 01:23:36;;;;;;;8.40;4.28;;;;;;;;;;6208847;23;20237;-88
2022/07/07 01:26:41;;;;;;;12.50;4.75;;;;;;;;;;6207097;23;20238;-90
2022/07/07 01:29:47;;;;;;;6.30;4.35;;;;;;;;;;6208003;23;20610;-90
2022/07/07 01:32:52;;;;;;;8.90;4.50;;;;;;;;;;6206943;23;20194;-89
2022/07/07 01:35:57;;;;;;;8.15;4.90;;;;;;;;;;6208979;23;20170;-90
2022/07/07 01:39:05;;;;;;;11.18;4.68;;;;;;;;;;6212390;23;20167;-90
2022/07/07 01:42:11;;;;;;;6.22;4.32;;;;;;;;;;6208587;23;20174;-90
2022/07/07 01:45:18;;;;;;;4.88;3.50;;;;;;;;;;6209528;23;20232;-89
2022/07/07 01:48:24;;;;;;;8.23;4.10;;;;;;;;;;6210573;23;20258;-91
2022/07/07 01:51:29;;;;;;;8.52;3.75;;;;;;;;;;6210808;23;20191;-89
2022/07/07 01:54:37;;;;;;;8.43;4.10;;;;;;;;;;6211107;23;20167;-90
2022/07/07 01:57:42;;;;;;;12.45;4.70;;;;;;;;;;6208868;23;20159;-90
2022/07/07 02:00:47;;;;;;;5.75;3.65;;;;;;;;;;6209932;23;20688;-89
2022/07/07 02:03:52;;;;;;;8.25;3.58;;;;;;;;;;6208773;23;20167;-89
2022/07/07 02:06:57;;;;;;;8.38;3.85;;;;;;;;;;6213662;23;20171;-89
2022/07/07 02:10:06;;;;;;;8.88;3.80;;;;;;;;;;6208367;23;20151;-89
2022/07/07 02:13:11;;;;;;;9.23;3.55;;;;;;;;;;6206975;23;20199;-90
2022/07/07 02:16:17;;;;;;;8.90;4.55;;;;;;;;;;6207147;23;20175;-90
2022/07/07 02:19:23;;;;;;;8.23;4.30;;;;;;;;;;6206662;23;20167;-89
2022/07/07 02:22:28;;;;;;;8.27;4.10;;;;;;;;;;6208300;23;20214;-89
2022/07/07 02:25:34;;;;;;;7.03;4.28;;;;;;;;;;6207756;23;20175;-89
2022/07/07 02:28:40;;;;;;;5.97;3.78;;;;;;;;;;6207020;23;20630;-88
2022/07/07 02:31:45;;;;;;;7.30;3.38;;;;;;;;;;6208105;23;20190;-89
2022/07/07 02:34:50;;;;;;;13.27;4.05;;;;;;;;;;6210143;23;20175;-89
2022/07/07 02:37:55;;;;;;;7.88;3.20;;;;;;;;;;6209920;23;20170;-90
2022/07/07 02:41:02;;;;;;;8.43;3.42;;;;;;;;;;6210645;23;20171;-88
2022/07/07 02:44:17;;;;;;;10.00;3.38;;;;;;;;;;6209646;23;20198;-88
2022/07/07 02:47:22;;;;;;;6.20;4.00;;;;;;;;;;6210408;23;20361;-89
2022/07/07 02:50:27;;;;;;;7.72;3.60;;;;;;;;;;6211456;23;20190;-88
2022/07/07 02:53:34;;;;;;;5.93;3.40;;;;;;;;;;6211353;23;20582;-89
2022/07/07 02:56:40;;;;;;;9.85;3.88;;;;;;;;;;6211946;23;20190;-89
2022/07/07 02:59:46;;;;;;;7.05;3.90;;;;;;;;;;6208238;23;20179;-89
2022/07/07 03:02:51;;;;;;;4.72;3.20;;;;;;;;;;6207922;23;20163;-89
2022/07/07 03:05:56;;;;;;;5.43;3.50;;;;;;;;;;6208177;23;20238;-88
2022/07/07 03:09:01;;;;;;;8.73;3.95;;;;;;;;;;6210072;23;20175;-88
2022/07/07 03:12:08;;;;;;;10.73;3.70;;;;;;;;;;6209222;23;20199;-90
2022/07/07 03:15:13;;;;;;;6.15;3.60;;;;;;;;;;6207472;23;20630;-90
2022/07/07 03:18:18;;;;;;;7.53;3.90;;;;;;;;;;6208261;23;20258;-89
2022/07/07 03:21:24;;;;;;;8.23;3.95;;;;;;;;;;6208055;23;20186;-89
2022/07/07 03:24:29;;;;;;;7.28;3.78;;;;;;;;;;6207522;23;20174;-90
2022/07/07 03:27:36;;;;;;;8.55;4.00;;;;;;;;;;6208026;23;20183;-89
2022/07/07 03:30:41;;;;;;;11.75;3.83;;;;;;;;;;6208201;23;20174;-89
2022/07/07 03:33:46;;;;;;;9.60;3.95;;;;;;;;;;6207306;23;20195;-90
2022/07/07 03:36:51;;;;;;;7.07;4.10;;;;;;;;;;6208271;23;20175;-89
2022/07/07 03:39:56;;;;;;;6.97;4.20;;;;;;;;;;6207711;23;20184;-88
2022/07/07 03:43:03;;;;;;;9.23;4.00;;;;;;;;;;6206492;23;20673;-89
2022/07/07 03:46:09;;;;;;;7.15;3.83;;;;;;;;;;6207101;23;20175;-90
2022/07/07 03:49:14;;;;;;;6.03;3.72;;;;;;;;;;6206566;23;20172;-89
2022/07/07 03:52:19;;;;;;;6.40;3.70;;;;;;;;;;6206044;23;20250;-89
2022/07/07 03:55:24;;;;;;;10.68;4.13;;;;;;;;;;6208104;23;20167;-88
2022/07/07 03:58:30;;;;;;;7.90;4.30;;;;;;;;;;6207334;23;20155;-89
2022/07/07 04:01:44;;;;;;;10.40;3.83;;;;;;;;;;6207151;23;20183;-90
2022/07/07 04:04:49;;;;;;;11.35;3.83;;;;;;;;;;6208210;23;20175;-89
2022/07/07 04:07:55;;;;;;;6.78;3.60;;;;;;;;;;6208309;23;20195;-89
2022/07/07 04:11:00;;;;;;;5.75;3.33;;;;;;;;;;6209649;23;20171;-89
2022/07/07 04:14:07;;;;;;;6.65;3.30;;;;;;;;;;6208474;23;20166;-89
2022/07/07 04:17:12;;;;;;;11.40;3.63;;;;;;;;;;6210678;23;20220;-88
2022/07/07 04:20:17;;;;;;;6.47;3.45;;;;;;;;;;6228133;23;20621;-90
2022/07/07 04:23:22;;;;;;;7.93;3.67;;;;;;;;;;6208709;23;20171;-90
2022/07/07 04:26:27;;;;;;;5.55;3.13;;;;;;;;;;6208787;23;20159;-90
2022/07/07 04:29:34;;;;;;;9.93;3.50;;;;;;;;;;6208852;23;20199;-90
2022/07/07 04:32:39;;;;;;;10.32;3.15;;;;;;;;;;6209963;23;20194;-89
2022/07/07 04:35:44;;;;;;;5.53;2.85;;;;;;;;;;6209658;23;20634;-89
2022/07/07 04:38:49;;;;;;;5.65;3.60;;;;;;;;;;6209642;23;20168;-89
2022/07/07 04:41:55;;;;;;;6.18;2.95;;;;;;;;;;6209455;23;20274;-89
2022/07/07 04:45:04;;;;;;;5.55;3.42;;;;;;;;;;6208866;23;20175;-89
2022/07/07 04:48:09;;;;;;;8.18;3.50;;;;;;;;;;6207112;23;20170;-90
2022/07/07 04:51:15;;;;;;;9.60;3.95;;;;;;;;;;6208780;23;20198;-90
2022/07/07 04:54:20;;;;;;;7.15;3.50;;;;;;;;;;6210093;23;20167;-89
2022/07/07 04:57:25;;;;;;;5.60;3.20;;;;;;;;;;6210543;23;20171;-89
2022/07/07 05:00:32;;;;;;;6.38;3.00;;;;;;;;;;6210392;23;20214;-90
2022/07/07 05:03:37;;;;;;;9.85;3.60;;;;;;;;;;6211471;23;20595;-88
2022/07/07 05:06:42;;;;;;;15.30;3.55;;;;;;;;;;6212618;23;20249;-87
2022/07/07 05:09:47;;;;;;;6.00;2.90;;;;;;;;;;6210365;23;20246;-88
2022/07/07 05:12:52;;;;;;;7.47;3.65;;;;;;;;;;6207944;23;20448;-88
2022/07/07 05:15:59;;;;;;;5.75;2.80;;;;;;;;;;6209208;23;20228;-88
2022/07/07 05:19:08;;;;;;;6.13;3.28;;;;;;;;;;6209228;23;20187;-88
2022/07/07 05:22:13;;;;;;;6.00;3.30;;;;;;;;;;6210667;23;20187;-89
2022/07/07 05:25:18;;;;;;;5.97;3.00;;;;;;;;;;6211347;23;20191;-89
2022/07/07 05:28:24;;;;;;;7.22;3.53;;;;;;;;;;6208916;23;20226;-88
2022/07/07 05:31:30;;;;;;;8.57;3.67;;;;;;;;;;6211197;23;20505;-90
2022/07/07 05:34:40;;;;;;;7.65;3.95;;;;;;;;;;6210654;23;20175;-91
2022/07/07 05:37:46;;;;;;;10.45;3.95;;;;;;;;;;6209024;23;20167;-89
2022/07/07 05:40:54;;;;;;;6.93;3.10;;;;;;;;;;6211449;23;20178;-89
2022/07/07 05:44:01;;;;;;;6.22;3.67;;;;;;;;;;6208850;23;20187;-89
2022/07/07 05:47:07;;;;;;;6.43;3.75;;;;;;;;;;6209183;23;20167;-90
2022/07/07 05:50:14;;;;;;;4.75;3.60;;;;;;;;;;6211803;23;20222;-88
2022/07/07 05:53:20;;;;;;;8.98;3.13;;;;;;;;;;6213750;23;20187;-90
2022/07/07 05:56:25;;;;;;;7.55;3.13;;;;;;;;;;6213475;23;20150;-89
2022/07/07 05:59:31;;;;;;;4.45;3.25;;;;;;;;;;6220482;23;20195;-90
2022/07/07 06:02:39;;;;;;;30.63;4.03;;;;;;;;;;6214222;23;20194;-90
2022/07/07 06:05:46;;;;;;;5.00;2.67;;;;;;;;;;6214465;23;20171;-88
2022/07/07 06:08:54;;;;;;;5.05;2.20;;;;;;;;;;6212903;23;20175;-88
2022/07/07 06:11:59;;;;;;;3.40;1.67;;;;;;;;;;6210548;23;20179;-89
2022/07/07 06:15:06;;;;;;;7.82;2.25;;;;;;;;;;6211993;23;20615;-88
2022/07/07 06:18:37;;;;;;;20.05;2.25;;;;;;;;;;6215762;23;20155;-90
2022/07/07 06:21:43;;;;;;;5.35;2.20;;;;;;;;;;6212171;23;20190;-89
2022/07/07 06:24:49;;;;;;;6.65;1.90;;;;;;;;;;6213853;23;20163;-88
2022/07/07 06:27:54;;;;;;;9.30;1.90;;;;;;;;;;6214066;23;20223;-90
2022/07/07 06:31:00;;;;;;;6.60;2.00;;;;;;;;;;6213797;23;20224;-88
2022/07/07 22:00:46;;;;;;;6.45;3.40;;;;;;;;;;6149867;23;20196;31
2022/07/07 22:07:20;;;;;;;7.53;2.70;;;;;;;;;;6123500;23;20213;-88
2022/07/07 22:10:25;;;;;;;6.10;3.10;;;;;;;;;;6124317;23;20251;-89
2022/07/07 22:13:30;;;;;;;17.73;3.13;;;;;;;;;;6123281;23;20233;-89
2022/07/07 22:16:36;;;;;;;10.98;3.22;;;;;;;;;;6125993;23;20169;-89
2022/07/07 22:19:43;;;;;;;3.55;2.42;;;;;;;;;;6128075;23;20168;-90
2022/07/07 22:22:49;;;;;;;8.95;2.60;;;;;;;;;;6127781;23;20189;-90
2022/07/07 22:25:58;;;;;;;4.32;2.40;;;;;;;;;;6128342;23;20216;-88
2022/07/07 22:29:04;;;;;;;5.40;2.75;;;;;;;;;;6126385;23;20225;-88
2022/07/07 22:32:10;;;;;;;10.02;3.25;;;;;;;;;;6125965;23;20205;-88
2022/07/07 22:35:18;;;;;;;6.40;3.10;;;;;;;;;;6126659;23;20200;-89
2022/07/07 22:38:23;;;;;;;8.50;3.10;;;;;;;;;;6125120;23;20193;-90
2022/07/07 22:41:29;;;;;;;8.05;3.53;;;;;;;;;;6125252;23;20213;-89
2022/07/07 22:44:39;;;;;;;6.30;3.30;;;;;;;;;;6125894;23;20213;-88
2022/07/07 22:47:45;;;;;;;8.75;3.90;;;;;;;;;;6126760;23;20161;-88
2022/07/07 22:50:53;;;;;;;6.70;3.55;;;;;;;;;;6127018;23;20221;-87
2022/07/07 22:54:01;;;;;;;5.82;2.90;;;;;;;;;;6117279;23;20213;-88
2022/07/07 22:57:06;;;;;;;5.82;2.80;;;;;;;;;;6126697;23;20173;-88
2022/07/07 23:00:12;;;;;;;9.95;3.50;;;;;;;;;;6124897;23;20169;-89
2022/07/07 23:03:18;;;;;;;6.18;3.42;;;;;;;;;;6126613;23;20165;-90
2022/07/07 23:06:25;;;;;;;6.15;3.40;;;;;;;;;;6127277;23;20169;-88
2022/07/07 23:09:33;;;;;;;4.45;2.92;;;;;;;;;;6127115;23;20816;-88
2022/07/07 23:12:38;;;;;;;4.95;2.88;;;;;;;;;;6126106;23;20268;-89
2022/07/07 23:15:43;;;;;;;8.82;2.97;;;;;;;;;;6126224;23;20235;-88
2022/07/07 23:18:49;;;;;;;6.05;3.00;;;;;;;;;;6125705;23;20506;-88
2022/07/07 23:21:56;;;;;;;4.55;2.92;;;;;;;;;;6123974;23;20165;-89
2022/07/07 23:25:01;;;;;;;10.95;3.47;;;;;;;;;;6142041;23;20215;-89
2022/07/07 23:28:06;;;;;;;5.07;3.67;;;;;;;;;;6122894;23;20260;-88
2022/07/07 23:31:14;;;;;;;8.60;3.10;;;;;;;;;;6124322;23;20174;-88
2022/07/07 23:34:19;;;;;;;5.53;3.50;;;;;;;;;;6124785;23;20260;-87
2022/07/07 23:37:27;;;;;;;6.63;3.20;;;;;;;;;;6125839;23;20194;-88
2022/07/07 23:40:33;;;;;;;8.02;3.22;;;;;;;;;;6125822;23;20170;-87
2022/07/07 23:43:38;;;;;;;6.35;3.40;;;;;;;;;;6125959;23;20621;-89
2022/07/07 23:46:43;;;;;;;9.50;3.17;;;;;;;;;;6125001;23;20198;-89
2022/07/07 23:49:52;;;;;;;5.13;2.90;;;;;;;;;;6124864;23;20157;-89
2022/07/07 23:52:58;;;;;;;5.40;3.33;;;;;;;;;;6125461;23;20257;-88
2022/07/07 23:56:03;;;;;;;6.60;3.42;;;;;;;;;;6124906;23;20245;-90
2022/07/07 23:59:09;;;;;;;8.05;3.30;;;;;;;;;;6126286;23;20173;-87
